sensor_id;sensor_type;location;lat;lon;timestamp;pressure;altitude;pressure_sealevel;temperature;humidity
47556;BME280;33291;46.222;26.460;2022-09-06T00:01:06;97309.50;;;11.23;90.97
47556;BME280;33291;46.222;26.460;2022-09-06T00:03:32;97304.53;;;11.19;91.10
47556;BME280;33291;46.222;26.460;2022-09-06T00:05:57;97311.03;;;11.25;91.20
47556;BME280;33291;46.222;26.460;2022-09-06T00:08:23;97314.47;;;11.26;91.10
47556;BME280;33291;46.222;26.460;2022-09-06T00:10:56;97299.06;;;11.23;91.00
47556;BME280;33291;46.222;26.460;2022-09-06T00:13:22;97310.91;;;11.27;91.25
47556;BME280;33291;46.222;26.460;2022-09-06T00:15:47;97311.84;;;11.26;90.94
47556;BME280;33291;46.222;26.460;2022-09-06T00:18:13;97306.75;;;11.24;91.08
47556;BME280;33291;46.222;26.460;2022-09-06T00:20:38;97283.31;;;11.13;91.20
47556;BME280;33291;46.222;26.460;2022-09-06T00:23:05;97302.63;;;11.22;91.17
47556;BME280;33291;46.222;26.460;2022-09-06T00:25:32;97307.81;;;11.22;91.30
47556;BME280;33291;46.222;26.460;2022-09-06T00:28:00;97301.44;;;11.14;91.51
47556;BME280;33291;46.222;26.460;2022-09-06T00:30:27;97310.69;;;11.18;91.60
47556;BME280;33291;46.222;26.460;2022-09-06T00:32:53;97290.69;;;11.08;91.56
47556;BME280;33291;46.222;26.460;2022-09-06T00:35:20;97301.44;;;11.14;91.50
47556;BME280;33291;46.222;26.460;2022-09-06T00:37:46;97288.19;;;11.06;91.78
47556;BME280;33291;46.222;26.460;2022-09-06T00:40:12;97285.28;;;10.99;91.77
47556;BME280;33291;46.222;26.460;2022-09-06T00:42:38;97283.59;;;10.98;91.81
47556;BME280;33291;46.222;26.460;2022-09-06T00:45:04;97273.53;;;10.94;91.64
47556;BME280;33291;46.222;26.460;2022-09-06T00:47:33;97290.00;;;11.06;91.79
47556;BME280;33291;46.222;26.460;2022-09-06T00:50:00;97285.28;;;10.99;92.05
47556;BME280;33291;46.222;26.460;2022-09-06T00:52:28;97277.56;;;10.98;91.98
47556;BME280;33291;46.222;26.460;2022-09-06T00:54:55;97280.41;;;10.95;91.78
47556;BME280;33291;46.222;26.460;2022-09-06T00:57:21;97281.34;;;10.94;91.58
47556;BME280;33291;46.222;26.460;2022-09-06T00:59:51;97294.63;;;10.91;91.89
47556;BME280;33291;46.222;26.460;2022-09-06T01:02:18;97294.50;;;10.81;91.99
47556;BME280;33291;46.222;26.460;2022-09-06T01:04:45;97282.94;;;10.74;91.66
47556;BME280;33291;46.222;26.460;2022-09-06T01:07:34;97303.53;;;10.77;91.79
47556;BME280;33291;46.222;26.460;2022-09-06T01:12:56;97297.03;;;10.71;92.00
47556;BME280;33291;46.222;26.460;2022-09-06T01:18:06;97296.56;;;10.66;91.70
47556;BME280;33291;46.222;26.460;2022-09-06T01:26:05;97287.44;;;10.60;92.25
47556;BME280;33291;46.222;26.460;2022-09-06T01:36:23;97280.22;;;10.53;91.44
47556;BME280;33291;46.222;26.460;2022-09-06T01:38:50;97271.94;;;10.47;91.62
47556;BME280;33291;46.222;26.460;2022-09-06T01:41:15;97284.00;;;10.48;91.67
47556;BME280;33291;46.222;26.460;2022-09-06T01:43:43;97266.03;;;10.34;91.88
47556;BME280;33291;46.222;26.460;2022-09-06T02:00:27;97252.97;;;10.11;91.48
47556;BME280;33291;46.222;26.460;2022-09-06T02:03:18;97274.28;;;10.28;91.39
47556;BME280;33291;46.222;26.460;2022-09-06T02:08:19;97281.25;;;10.27;91.33
47556;BME280;33291;46.222;26.460;2022-09-06T02:10:59;97277.25;;;10.23;91.38
47556;BME280;33291;46.222;26.460;2022-09-06T02:13:30;97279.00;;;10.23;91.15
47556;BME280;33291;46.222;26.460;2022-09-06T02:16:01;97279.94;;;10.22;91.24
47556;BME280;33291;46.222;26.460;2022-09-06T02:18:34;97261.38;;;10.15;91.39
47556;BME280;33291;46.222;26.460;2022-09-06T02:21:02;97268.13;;;10.18;91.33
47556;BME280;33291;46.222;26.460;2022-09-06T02:23:32;97279.47;;;10.17;91.20
47556;BME280;33291;46.222;26.460;2022-09-06T02:26:08;97287.28;;;10.17;91.21
47556;BME280;33291;46.222;26.460;2022-09-06T02:28:35;97289.06;;;10.16;91.11
47556;BME280;33291;46.222;26.460;2022-09-06T02:31:04;97278.03;;;10.12;91.17
47556;BME280;33291;46.222;26.460;2022-09-06T02:33:33;97272.13;;;10.10;90.87
47556;BME280;33291;46.222;26.460;2022-09-06T02:36:07;97270.13;;;10.14;91.03
47556;BME280;33291;46.222;26.460;2022-09-06T02:38:33;97278.66;;;10.16;91.00
47556;BME280;33291;46.222;26.460;2022-09-06T02:41:00;97273.56;;;10.14;90.80
47556;BME280;33291;46.222;26.460;2022-09-06T02:43:27;97271.19;;;10.11;90.80
47556;BME280;33291;46.222;26.460;2022-09-06T02:45:52;97273.41;;;10.05;90.62
47556;BME280;33291;46.222;26.460;2022-09-06T02:48:18;97266.19;;;9.97;90.59
47556;BME280;33291;46.222;26.460;2022-09-06T02:50:43;97272.13;;;9.99;90.79
47556;BME280;33291;46.222;26.460;2022-09-06T02:53:12;97279.22;;;9.97;91.26
47556;BME280;33291;46.222;26.460;2022-09-06T02:55:38;97280.16;;;9.96;91.49
47556;BME280;33291;46.222;26.460;2022-09-06T02:58:05;97274.47;;;9.91;91.79
47556;BME280;33291;46.222;26.460;2022-09-06T03:00:31;97268.44;;;9.90;92.06
47556;BME280;33291;46.222;26.460;2022-09-06T03:02:57;97246.53;;;9.82;92.19
47556;BME280;33291;46.222;26.460;2022-09-06T03:05:24;97268.44;;;9.90;92.27
47556;BME280;33291;46.222;26.460;2022-09-06T03:07:50;97280.66;;;10.01;92.47
47556;BME280;33291;46.222;26.460;2022-09-06T03:10:16;97275.44;;;10.01;92.69
47556;BME280;33291;46.222;26.460;2022-09-06T03:12:43;97281.69;;;9.99;92.60
47556;BME280;33291;46.222;26.460;2022-09-06T03:15:09;97283.34;;;10.00;92.64
47556;BME280;33291;46.222;26.460;2022-09-06T03:17:36;97264.88;;;9.91;92.61
47556;BME280;33291;46.222;26.460;2022-09-06T03:20:02;97276.25;;;10.02;92.68
47556;BME280;33291;46.222;26.460;2022-09-06T03:22:28;97282.91;;;10.06;92.78
47556;BME280;33291;46.222;26.460;2022-09-06T03:24:54;97283.94;;;10.03;92.56
47556;BME280;33291;46.222;26.460;2022-09-06T03:27:19;97262.19;;;9.93;92.72
47556;BME280;33291;46.222;26.460;2022-09-06T03:29:45;97276.88;;;10.05;92.56
47556;BME280;33291;46.222;26.460;2022-09-06T03:32:10;97266.94;;;9.99;92.59
47556;BME280;33291;46.222;26.460;2022-09-06T03:34:36;97262.19;;;9.93;92.77
47556;BME280;33291;46.222;26.460;2022-09-06T03:37:01;97283.25;;;10.01;93.10
47556;BME280;33291;46.222;26.460;2022-09-06T03:39:27;97276.84;;;9.94;93.02
47556;BME280;33291;46.222;26.460;2022-09-06T03:41:52;97285.72;;;10.03;92.96
47556;BME280;33291;46.222;26.460;2022-09-06T03:44:18;97287.41;;;10.04;92.71
47556;BME280;33291;46.222;26.460;2022-09-06T03:46:43;97293.66;;;10.01;92.46
47556;BME280;33291;46.222;26.460;2022-09-06T03:49:10;97299.78;;;10.00;92.38
47556;BME280;33291;46.222;26.460;2022-09-06T03:51:35;97289.72;;;9.95;92.51
47556;BME280;33291;46.222;26.460;2022-09-06T03:54:01;97296.72;;;9.95;92.48
47556;BME280;33291;46.222;26.460;2022-09-06T03:56:27;97293.63;;;9.90;92.48
47556;BME280;33291;46.222;26.460;2022-09-06T03:58:52;97293.41;;;9.93;92.23
47556;BME280;33291;46.222;26.460;2022-09-06T04:01:18;97302.28;;;9.90;92.22
47556;BME280;33291;46.222;26.460;2022-09-06T04:03:44;97303.22;;;9.89;92.05
47556;BME280;33291;46.222;26.460;2022-09-06T04:06:10;97305.81;;;9.89;91.96
47556;BME280;33291;46.222;26.460;2022-09-06T04:08:36;97313.03;;;9.86;91.99
47556;BME280;33291;46.222;26.460;2022-09-06T04:11:03;97292.16;;;9.74;92.02
47556;BME280;33291;46.222;26.460;2022-09-06T04:13:29;97307.19;;;9.82;92.15
47556;BME280;33291;46.222;26.460;2022-09-06T04:15:54;97300.38;;;9.81;92.11
47556;BME280;33291;46.222;26.460;2022-09-06T04:18:20;97298.69;;;9.80;92.21
47556;BME280;33291;46.222;26.460;2022-09-06T04:20:50;97298.34;;;9.73;92.79
47556;BME280;33291;46.222;26.460;2022-09-06T04:23:17;97299.03;;;9.75;92.60
47556;BME280;33291;46.222;26.460;2022-09-06T04:25:47;97280.69;;;9.66;92.57
47556;BME280;33291;46.222;26.460;2022-09-06T04:28:13;97292.78;;;9.78;92.76
47556;BME280;33291;46.222;26.460;2022-09-06T04:30:39;97297.13;;;9.77;92.96
47556;BME280;33291;46.222;26.460;2022-09-06T04:33:04;97300.59;;;9.78;92.82
47556;BME280;33291;46.222;26.460;2022-09-06T04:35:29;97281.88;;;9.73;92.95
47556;BME280;33291;46.222;26.460;2022-09-06T04:37:59;97291.34;;;9.85;93.00
47556;BME280;33291;46.222;26.460;2022-09-06T04:40:24;97285.56;;;9.82;93.13
47556;BME280;33291;46.222;26.460;2022-09-06T04:42:50;97295.16;;;9.92;93.03
47556;BME280;33291;46.222;26.460;2022-09-06T04:45:15;97296.97;;;9.92;93.25
47556;BME280;33291;46.222;26.460;2022-09-06T04:47:41;97293.88;;;9.98;93.22
47556;BME280;33291;46.222;26.460;2022-09-06T04:50:07;97287.50;;;10.02;93.02
47556;BME280;33291;46.222;26.460;2022-09-06T04:52:32;97287.50;;;10.02;92.99
47556;BME280;33291;46.222;26.460;2022-09-06T04:54:58;97265.97;;;10.00;92.60
47556;BME280;33291;46.222;26.460;2022-09-06T04:57:23;97288.44;;;10.12;92.52
47556;BME280;33291;46.222;26.460;2022-09-06T04:59:49;97273.31;;;10.06;92.36
47556;BME280;33291;46.222;26.460;2022-09-06T05:02:14;97287.53;;;10.25;92.02
47556;BME280;33291;46.222;26.460;2022-09-06T05:04:40;97270.50;;;10.21;91.82
47556;BME280;33291;46.222;26.460;2022-09-06T05:07:07;97280.00;;;10.33;91.81
47556;BME280;33291;46.222;26.460;2022-09-06T05:09:33;97271.44;;;10.31;91.61
47556;BME280;33291;46.222;26.460;2022-09-06T05:11:59;97268.72;;;10.32;91.05
47556;BME280;33291;46.222;26.460;2022-09-06T05:14:26;97275.50;;;10.46;90.60
47556;BME280;33291;46.222;26.460;2022-09-06T05:16:51;97280.81;;;10.56;90.34
47556;BME280;33291;46.222;26.460;2022-09-06T05:19:18;97259.50;;;10.51;90.44
47556;BME280;33291;46.222;26.460;2022-09-06T05:21:44;97275.34;;;10.59;90.82
47556;BME280;33291;46.222;26.460;2022-09-06T05:24:09;97271.47;;;10.65;90.84
47556;BME280;33291;46.222;26.460;2022-09-06T05:26:35;97266.56;;;10.72;90.81
47556;BME280;33291;46.222;26.460;2022-09-06T05:29:01;97265.97;;;10.79;90.58
47556;BME280;33291;46.222;26.460;2022-09-06T05:31:28;97258.63;;;10.84;90.29
47556;BME280;33291;46.222;26.460;2022-09-06T05:33:55;97263.94;;;10.94;90.00
47556;BME280;33291;46.222;26.460;2022-09-06T05:36:22;97256.00;;;10.96;89.54
47556;BME280;33291;46.222;26.460;2022-09-06T05:38:52;97266.28;;;11.09;89.36
47556;BME280;33291;46.222;26.460;2022-09-06T05:41:18;97241.28;;;11.06;89.09
47556;BME280;33291;46.222;26.460;2022-09-06T05:43:44;97261.94;;;11.30;88.69
47556;BME280;33291;46.222;26.460;2022-09-06T05:46:11;97259.63;;;11.37;88.64
47556;BME280;33291;46.222;26.460;2022-09-06T05:48:37;97256.53;;;11.43;88.41
47556;BME280;33291;46.222;26.460;2022-09-06T05:51:07;97261.03;;;11.52;88.12
47556;BME280;33291;46.222;26.460;2022-09-06T05:53:35;97255.03;;;11.62;87.64
47556;BME280;33291;46.222;26.460;2022-09-06T05:56:02;97253.56;;;11.69;87.34
47556;BME280;33291;46.222;26.460;2022-09-06T05:58:27;97250.63;;;11.83;86.98
47556;BME280;33291;46.222;26.460;2022-09-06T06:01:06;97246.34;;;11.94;86.40
47556;BME280;33291;46.222;26.460;2022-09-06T06:03:32;97242.94;;;12.03;86.19
47556;BME280;33291;46.222;26.460;2022-09-06T06:05:58;97231.41;;;12.05;86.20
47556;BME280;33291;46.222;26.460;2022-09-06T06:08:23;97247.16;;;12.25;86.39
47556;BME280;33291;46.222;26.460;2022-09-06T06:10:49;97251.19;;;12.39;85.92
47556;BME280;33291;46.222;26.460;2022-09-06T06:13:14;97243.97;;;12.52;85.36
47556;BME280;33291;46.222;26.460;2022-09-06T06:15:40;97249.94;;;12.64;84.67
47556;BME280;33291;46.222;26.460;2022-09-06T06:18:05;97243.63;;;12.76;84.55
47556;BME280;33291;46.222;26.460;2022-09-06T06:20:31;97246.69;;;12.91;84.39
47556;BME280;33291;46.222;26.460;2022-09-06T06:22:56;97239.56;;;13.03;83.90
47556;BME280;33291;46.222;26.460;2022-09-06T06:25:22;97243.69;;;13.15;83.46
47556;BME280;33291;46.222;26.460;2022-09-06T06:27:51;97248.63;;;13.28;81.97
47556;BME280;33291;46.222;26.460;2022-09-06T06:30:16;97240.97;;;13.37;81.47
47556;BME280;33291;46.222;26.460;2022-09-06T06:32:42;97240.41;;;13.53;81.02
47556;BME280;33291;46.222;26.460;2022-09-06T06:35:08;97218.50;;;13.54;80.49
47556;BME280;33291;46.222;26.460;2022-09-06T06:37:34;97237.91;;;13.80;79.98
47556;BME280;33291;46.222;26.460;2022-09-06T06:39:59;97230.69;;;13.92;79.39
47556;BME280;33291;46.222;26.460;2022-09-06T06:42:25;97157.06;;;13.58;78.05
47556;BME280;33291;46.222;26.460;2022-09-06T06:44:51;97223.75;;;14.11;76.32
47556;BME280;33291;46.222;26.460;2022-09-06T06:47:19;97232.81;;;14.26;74.23
47556;BME280;33291;46.222;26.460;2022-09-06T06:49:45;97235.53;;;14.34;73.61
47556;BME280;33291;46.222;26.460;2022-09-06T06:52:10;97227.06;;;14.40;72.33
47556;BME280;33291;46.222;26.460;2022-09-06T06:54:36;97227.19;;;14.49;71.57
47556;BME280;33291;46.222;26.460;2022-09-06T06:57:03;97234.19;;;14.58;71.29
47556;BME280;33291;46.222;26.460;2022-09-06T06:59:29;97225.63;;;14.66;70.25
47556;BME280;33291;46.222;26.460;2022-09-06T07:01:55;97227.50;;;14.73;70.44
47556;BME280;33291;46.222;26.460;2022-09-06T07:04:21;97228.41;;;14.82;69.97
47556;BME280;33291;46.222;26.460;2022-09-06T07:06:54;97232.34;;;14.96;70.20
47556;BME280;33291;46.222;26.460;2022-09-06T07:09:21;97228.81;;;15.05;69.50
47556;BME280;33291;46.222;26.460;2022-09-06T07:11:47;97227.72;;;15.26;69.40
47556;BME280;33291;46.222;26.460;2022-09-06T07:14:14;97224.84;;;15.37;68.53
47556;BME280;33291;46.222;26.460;2022-09-06T07:16:40;97221.31;;;15.46;67.97
47556;BME280;33291;46.222;26.460;2022-09-06T07:19:06;97208.56;;;15.52;67.88
47556;BME280;33291;46.222;26.460;2022-09-06T07:21:32;97217.84;;;15.64;67.44
47556;BME280;33291;46.222;26.460;2022-09-06T07:23:57;97213.09;;;15.68;67.70
47556;BME280;33291;46.222;26.460;2022-09-06T07:26:25;97227.66;;;15.80;67.59
47556;BME280;33291;46.222;26.460;2022-09-06T07:28:53;97226.94;;;15.96;66.26
47556;BME280;33291;46.222;26.460;2022-09-06T07:31:19;97219.59;;;16.08;64.25
47556;BME280;33291;46.222;26.460;2022-09-06T07:33:44;97224.88;;;16.08;64.17
47556;BME280;33291;46.222;26.460;2022-09-06T07:36:10;97230.03;;;16.17;64.30
47556;BME280;33291;46.222;26.460;2022-09-06T07:38:35;97209.94;;;16.08;62.76
47556;BME280;33291;46.222;26.460;2022-09-06T07:41:06;97216.16;;;16.07;63.53
47556;BME280;33291;46.222;26.460;2022-09-06T07:43:32;97221.78;;;16.12;63.64
47556;BME280;33291;46.222;26.460;2022-09-06T07:46:04;97214.56;;;16.14;63.64
47556;BME280;33291;46.222;26.460;2022-09-06T07:48:31;97219.50;;;16.17;63.99
47556;BME280;33291;46.222;26.460;2022-09-06T07:53:29;97202.66;;;16.37;63.54
47556;BME280;33291;46.222;26.460;2022-09-06T07:55:55;97215.03;;;16.44;64.02
47556;BME280;33291;46.222;26.460;2022-09-06T07:58:20;97210.59;;;16.45;64.42
47556;BME280;33291;46.222;26.460;2022-09-06T08:00:47;97205.69;;;16.50;64.32
47556;BME280;33291;46.222;26.460;2022-09-06T08:03:12;97202.56;;;16.55;63.27
47556;BME280;33291;46.222;26.460;2022-09-06T08:05:38;97202.94;;;16.68;63.28
47556;BME280;33291;46.222;26.460;2022-09-06T08:08:03;97201.97;;;16.69;63.57
47556;BME280;33291;46.222;26.460;2022-09-06T08:10:29;97200.53;;;16.75;63.45
47556;BME280;33291;46.222;26.460;2022-09-06T08:12:54;97186.19;;;16.69;63.70
47556;BME280;33291;46.222;26.460;2022-09-06T08:15:21;97203.97;;;16.83;63.07
47556;BME280;33291;46.222;26.460;2022-09-06T08:17:48;97195.28;;;16.91;62.97
47556;BME280;33291;46.222;26.460;2022-09-06T08:20:14;97208.66;;;17.06;62.96
47556;BME280;33291;46.222;26.460;2022-09-06T08:22:39;97203.75;;;17.19;62.94
47556;BME280;33291;46.222;26.460;2022-09-06T08:25:05;97196.16;;;17.25;62.88
47556;BME280;33291;46.222;26.460;2022-09-06T08:27:32;97188.63;;;17.30;62.05
47556;BME280;33291;46.222;26.460;2022-09-06T08:29:57;97189.59;;;17.29;62.10
47556;BME280;33291;46.222;26.460;2022-09-06T08:32:23;97190.56;;;17.28;62.28
47556;BME280;33291;46.222;26.460;2022-09-06T08:34:48;97196.19;;;17.33;61.40
47556;BME280;33291;46.222;26.460;2022-09-06T08:37:14;97186.63;;;17.32;61.00
47556;BME280;33291;46.222;26.460;2022-09-06T08:39:39;97191.09;;;17.31;61.67
47556;BME280;33291;46.222;26.460;2022-09-06T08:42:06;97188.63;;;17.30;62.66
47556;BME280;33291;46.222;26.460;2022-09-06T08:47:15;97182.03;;;17.58;61.08
47556;BME280;33291;46.222;26.460;2022-09-06T09:00:51;97163.44;;;18.24;58.24
47556;BME280;33291;46.222;26.460;2022-09-06T09:03:33;97162.56;;;18.32;57.76
47556;BME280;33291;46.222;26.460;2022-09-06T09:06:00;97162.97;;;18.52;57.09
47556;BME280;33291;46.222;26.460;2022-09-06T09:11:21;97164.81;;;18.75;55.80
47556;BME280;33291;46.222;26.460;2022-09-06T09:13:52;97158.84;;;18.81;55.67
47556;BME280;33291;46.222;26.460;2022-09-06T09:16:19;97153.22;;;18.92;54.73
47556;BME280;33291;46.222;26.460;2022-09-06T09:18:51;97156.31;;;18.96;53.99
47556;BME280;33291;46.222;26.460;2022-09-06T09:21:22;97146.88;;;19.02;53.19
47556;BME280;33291;46.222;26.460;2022-09-06T09:23:56;97148.75;;;18.93;53.17
47556;BME280;33291;46.222;26.460;2022-09-06T09:26:25;97149.63;;;18.85;53.37
47556;BME280;33291;46.222;26.460;2022-09-06T09:31:45;97143.06;;;19.04;53.57
47556;BME280;33291;46.222;26.460;2022-09-06T09:37:24;97135.59;;;19.08;52.97
47556;BME280;33291;46.222;26.460;2022-09-06T09:39:55;97128.81;;;19.13;53.74
47556;BME280;33291;46.222;26.460;2022-09-06T09:42:34;97123.63;;;19.20;54.01
47556;BME280;33291;46.222;26.460;2022-09-06T09:45:01;97119.44;;;19.26;54.15
47556;BME280;33291;46.222;26.460;2022-09-06T09:47:29;97122.31;;;19.39;53.31
47556;BME280;33291;46.222;26.460;2022-09-06T09:49:56;97115.09;;;19.48;52.79
47556;BME280;33291;46.222;26.460;2022-09-06T09:52:27;97116.88;;;19.56;51.93
47556;BME280;33291;46.222;26.460;2022-09-06T09:55:02;97112.66;;;19.46;52.03
47556;BME280;33291;46.222;26.460;2022-09-06T09:57:30;97116.31;;;19.45;51.95
47556;BME280;33291;46.222;26.460;2022-09-06T10:00:07;97123.03;;;19.48;52.78
47556;BME280;33291;46.222;26.460;2022-09-06T10:02:38;97116.88;;;19.56;53.32
47556;BME280;33291;46.222;26.460;2022-09-06T10:07:45;97110.38;;;19.58;52.08
47556;BME280;33291;46.222;26.460;2022-09-06T10:10:19;97115.84;;;19.57;51.61
47556;BME280;33291;46.222;26.460;2022-09-06T10:12:45;97108.25;;;19.39;52.28
47556;BME280;33291;46.222;26.460;2022-09-06T10:15:31;97095.38;;;19.21;52.64
47556;BME280;33291;46.222;26.460;2022-09-06T10:17:57;97107.53;;;19.30;53.35
47556;BME280;33291;46.222;26.460;2022-09-06T10:20:48;97104.78;;;19.23;53.40
47556;BME280;33291;46.222;26.460;2022-09-06T10:23:28;97104.38;;;19.11;53.46
47556;BME280;33291;46.222;26.460;2022-09-06T10:29:07;97096.19;;;19.06;55.83
47556;BME280;33291;46.222;26.460;2022-09-06T10:34:20;97102.28;;;19.07;55.73
47556;BME280;33291;46.222;26.460;2022-09-06T10:40:11;97102.56;;;19.12;56.20
47556;BME280;33291;46.222;26.460;2022-09-06T10:42:45;97097.47;;;19.10;55.81
47556;BME280;33291;46.222;26.460;2022-09-06T10:45:27;97097.13;;;19.13;54.28
47556;BME280;33291;46.222;26.460;2022-09-06T10:47:57;97085.78;;;19.05;53.49
47556;BME280;33291;46.222;26.460;2022-09-06T10:58:58;97095.91;;;19.01;53.56
47556;BME280;33291;46.222;26.460;2022-09-06T11:04:24;97099.97;;;19.04;57.23
47556;BME280;33291;46.222;26.460;2022-09-06T11:06:56;97096.88;;;19.00;58.63
47556;BME280;33291;46.222;26.460;2022-09-06T11:09:43;97101.81;;;19.03;61.82
47556;BME280;33291;46.222;26.460;2022-09-06T11:12:32;97098.53;;;19.01;63.78
47556;BME280;33291;46.222;26.460;2022-09-06T11:15:03;97090.66;;;18.93;63.68
47556;BME280;33291;46.222;26.460;2022-09-06T11:18:07;97098.41;;;18.94;63.89
47556;BME280;33291;46.222;26.460;2022-09-06T11:20:41;97097.78;;;18.92;64.40
47556;BME280;33291;46.222;26.460;2022-09-06T11:28:41;97094.97;;;18.94;65.15
47556;BME280;33291;46.222;26.460;2022-09-06T11:31:12;97082.94;;;18.91;62.34
47556;BME280;33291;46.222;26.460;2022-09-06T11:33:42;97079.31;;;18.92;61.19
47556;BME280;33291;46.222;26.460;2022-09-06T11:36:29;97087.50;;;18.97;60.42
47556;BME280;33291;46.222;26.460;2022-09-06T11:39:00;97086.16;;;19.02;60.60
47556;BME280;33291;46.222;26.460;2022-09-06T11:41:31;97090.09;;;19.06;58.00
47556;BME280;33291;46.222;26.460;2022-09-06T11:43:58;97082.25;;;19.12;56.09
47556;BME280;33291;46.222;26.460;2022-09-06T11:51:51;97065.72;;;19.33;53.85
47556;BME280;33291;46.222;26.460;2022-09-06T12:07:26;97063.41;;;19.83;52.49
47556;BME280;33291;46.222;26.460;2022-09-06T12:09:52;97054.38;;;19.78;52.06
47556;BME280;33291;46.222;26.460;2022-09-06T12:12:47;97049.81;;;19.86;52.07
47556;BME280;33291;46.222;26.460;2022-09-06T12:15:31;97045.25;;;19.95;52.40
47556;BME280;33291;46.222;26.460;2022-09-06T12:18:06;97042.50;;;20.03;51.87
47556;BME280;33291;46.222;26.460;2022-09-06T12:25:57;97040.78;;;19.81;52.46
47556;BME280;33291;46.222;26.460;2022-09-06T12:28:26;97041.25;;;19.69;52.33
47556;BME280;33291;46.222;26.460;2022-09-06T12:30:52;97042.06;;;19.55;53.27
47556;BME280;33291;46.222;26.460;2022-09-06T12:33:31;97043.78;;;19.48;53.43
47556;BME280;33291;46.222;26.460;2022-09-06T12:36:17;97035.31;;;19.38;54.83
47556;BME280;33291;46.222;26.460;2022-09-06T12:39:03;97037.25;;;19.44;56.06
47556;BME280;33291;46.222;26.460;2022-09-06T12:41:37;97034.78;;;19.42;59.45
47556;BME280;33291;46.222;26.460;2022-09-06T12:44:04;97041.41;;;19.38;60.69
47556;BME280;33291;46.222;26.460;2022-09-06T12:46:33;97036.22;;;19.30;62.16
47556;BME280;33291;46.222;26.460;2022-09-06T12:49:05;97033.47;;;19.23;62.79
47556;BME280;33291;46.222;26.460;2022-09-06T12:51:31;97039.47;;;19.17;63.55
47556;BME280;33291;46.222;26.460;2022-09-06T12:54:02;97027.53;;;19.06;64.49
47556;BME280;33291;46.222;26.460;2022-09-06T12:56:30;97037.81;;;19.01;65.93
47556;BME280;33291;46.222;26.460;2022-09-06T12:59:29;97046.91;;;18.98;68.78
47556;BME280;33291;46.222;26.460;2022-09-06T13:02:09;97040.06;;;18.89;70.39
47556;BME280;33291;46.222;26.460;2022-09-06T13:04:47;97037.78;;;18.86;68.28
47556;BME280;33291;46.222;26.460;2022-09-06T13:07:17;97030.84;;;18.85;68.34
47556;BME280;33291;46.222;26.460;2022-09-06T13:09:45;97026.53;;;18.84;67.38
47556;BME280;33291;46.222;26.460;2022-09-06T13:12:26;97016.81;;;18.85;66.53
47556;BME280;33291;46.222;26.460;2022-09-06T13:14:55;97024.91;;;18.83;66.46
47556;BME280;33291;46.222;26.460;2022-09-06T13:17:27;97023.88;;;18.84;66.21
47556;BME280;33291;46.222;26.460;2022-09-06T13:19:53;97022.28;;;18.83;66.20
47556;BME280;33291;46.222;26.460;2022-09-06T13:22:44;97022.56;;;18.88;66.65
47556;BME280;33291;46.222;26.460;2022-09-06T13:25:46;97025.03;;;18.90;68.57
47556;BME280;33291;46.222;26.460;2022-09-06T13:28:32;97011.06;;;18.81;69.03
47556;BME280;33291;46.222;26.460;2022-09-06T13:31:30;97024.41;;;18.88;71.47
47556;BME280;33291;46.222;26.460;2022-09-06T13:33:57;97025.25;;;18.80;72.84
47556;BME280;33291;46.222;26.460;2022-09-06T13:36:31;97021.09;;;18.62;72.57
47556;BME280;33291;46.222;26.460;2022-09-06T13:38:57;97026.03;;;18.65;72.32
47556;BME280;33291;46.222;26.460;2022-09-06T13:44:17;97016.50;;;18.64;72.34
47556;BME280;33291;46.222;26.460;2022-09-06T13:46:43;97006.47;;;18.60;72.36
47556;BME280;33291;46.222;26.460;2022-09-06T13:49:09;97015.03;;;18.62;72.37
47556;BME280;33291;46.222;26.460;2022-09-06T13:51:37;97009.25;;;18.58;72.39
47556;BME280;33291;46.222;26.460;2022-09-06T13:54:13;97020.28;;;18.62;72.23
47556;BME280;33291;46.222;26.460;2022-09-06T13:56:39;97018.19;;;18.57;72.29
47556;BME280;33291;46.222;26.460;2022-09-06T13:59:08;97020.16;;;18.55;72.50
47556;BME280;33291;46.222;26.460;2022-09-06T14:01:37;97019.53;;;18.53;73.03
47556;BME280;33291;46.222;26.460;2022-09-06T14:04:04;97022.16;;;18.53;73.67
47556;BME280;33291;46.222;26.460;2022-09-06T14:06:30;96980.44;;;18.34;73.97
47556;BME280;33291;46.222;26.460;2022-09-06T14:08:55;97000.28;;;18.44;74.83
47556;BME280;33291;46.222;26.460;2022-09-06T14:11:21;97007.03;;;18.47;75.31
47556;BME280;33291;46.222;26.460;2022-09-06T14:13:47;96985.53;;;18.35;75.74
47556;BME280;33291;46.222;26.460;2022-09-06T14:16:12;96998.84;;;18.42;76.43
47556;BME280;33291;46.222;26.460;2022-09-06T14:18:38;97001.00;;;18.38;76.86
47556;BME280;33291;46.222;26.460;2022-09-06T14:21:04;96999.56;;;18.36;76.87
47556;BME280;33291;46.222;26.460;2022-09-06T14:23:31;96996.59;;;18.31;76.05
47556;BME280;33291;46.222;26.460;2022-09-06T14:25:59;96994.31;;;18.27;75.74
47556;BME280;33291;46.222;26.460;2022-09-06T14:28:25;97005.22;;;18.24;76.45
47556;BME280;33291;46.222;26.460;2022-09-06T14:30:51;96992.81;;;18.10;77.85
47556;BME280;33291;46.222;26.460;2022-09-06T14:33:18;97002.03;;;18.06;79.04
47556;BME280;33291;46.222;26.460;2022-09-06T14:35:43;97009.84;;;17.99;79.36
47556;BME280;33291;46.222;26.460;2022-09-06T14:38:09;97009.00;;;17.99;79.74
47556;BME280;33291;46.222;26.460;2022-09-06T14:40:36;97008.34;;;17.97;79.76
47556;BME280;33291;46.222;26.460;2022-09-06T14:43:03;97018.22;;;17.94;79.28
47556;BME280;33291;46.222;26.460;2022-09-06T14:45:29;97013.78;;;17.87;79.34
47556;BME280;33291;46.222;26.460;2022-09-06T14:47:54;97022.22;;;17.90;79.58
47556;BME280;33291;46.222;26.460;2022-09-06T14:50:20;97025.03;;;17.89;79.57
47556;BME280;33291;46.222;26.460;2022-09-06T14:52:46;97030.13;;;17.82;79.57
47556;BME280;33291;46.222;26.460;2022-09-06T14:55:12;97031.31;;;17.80;79.67